createdAt,value
2023-05-09T00:01:19.901Z,100218.53
2023-05-09T00:03:47.012Z,100217.63
2023-05-09T00:06:14.282Z,100201.25
2023-05-09T00:08:41.670Z,100198.66
2023-05-09T00:11:08.236Z,100203.75
2023-05-09T00:13:34.815Z,100202.75
2023-05-09T00:16:01.420Z,100195.00
2023-05-09T00:18:30.010Z,100184.69
2023-05-09T00:20:57.728Z,100188.13
2023-05-09T00:23:24.378Z,100194.16
2023-05-09T00:25:50.936Z,100182.88
2023-05-09T00:28:17.471Z,100178.59
2023-05-09T00:30:45.113Z,100179.38
2023-05-09T00:33:12.117Z,100165.59
2023-05-09T00:35:38.677Z,100154.41
2023-05-09T00:38:05.324Z,100144.03
2023-05-09T00:40:32.095Z,100134.50
2023-05-09T00:42:59.798Z,100133.69
2023-05-09T00:45:26.363Z,100118.09
2023-05-09T00:47:53.196Z,100102.53
2023-05-09T00:50:21.640Z,100088.66
2023-05-09T00:52:48.235Z,100101.53
2023-05-09T00:55:18.380Z,100098.97
2023-05-09T00:57:45.330Z,100095.47
2023-05-09T01:00:15.533Z,100090.28
2023-05-09T01:02:50.485Z,100079.94
2023-05-09T01:05:17.650Z,100066.13
2023-05-09T01:07:56.886Z,100067.81
2023-05-09T01:10:32.139Z,100074.81
2023-05-09T01:13:01.548Z,100067.84
2023-05-09T01:15:34.164Z,100051.38
2023-05-09T01:18:23.358Z,100043.56
2023-05-09T01:21:18.006Z,100035.75
2023-05-09T01:23:49.843Z,100024.63
2023-05-09T01:26:46.761Z,100032.31
2023-05-09T01:29:41.865Z,100034.81
2023-05-09T01:32:19.878Z,99998.66
2023-05-09T01:34:49.990Z,100023.72
2023-05-09T01:37:20.074Z,100022.88
2023-05-09T01:39:52.608Z,100022.84
2023-05-09T01:42:21.294Z,100017.78
2023-05-09T01:44:49.807Z,100041.97
2023-05-09T01:47:18.276Z,100042.00
2023-05-09T01:49:47.681Z,100025.63
2023-05-09T01:52:18.531Z,100020.41
2023-05-09T01:54:46.187Z,100023.88
2023-05-09T01:57:14.535Z,100016.19
2023-05-09T01:59:43.113Z,100013.63
2023-05-09T02:02:10.345Z,100007.53
2023-05-09T02:04:38.055Z,99992.94
2023-05-09T02:07:06.179Z,99977.34
2023-05-09T02:09:32.737Z,99984.31
2023-05-09T02:11:59.337Z,99971.34
2023-05-09T02:14:26.211Z,99967.03
2023-05-09T02:16:54.276Z,99976.50
2023-05-09T02:19:21.102Z,99968.75
2023-05-09T02:21:47.660Z,99969.56
2023-05-09T02:24:14.310Z,99976.41
2023-05-09T02:26:41.429Z,99972.94
2023-05-09T02:29:09.184Z,99960.00
2023-05-09T02:31:36.550Z,99957.41
2023-05-09T02:34:05.476Z,99968.66
2023-05-09T02:36:32.726Z,99974.69
2023-05-09T02:38:59.896Z,99970.44
2023-05-09T02:41:28.971Z,99978.13
2023-05-09T02:43:55.893Z,99986.78
2023-05-09T02:46:22.887Z,99990.22
2023-05-09T02:48:49.714Z,99989.38
2023-05-09T02:51:16.261Z,99994.56
2023-05-09T02:53:43.202Z,100008.16
2023-05-09T02:56:10.878Z,100008.16
2023-05-09T02:58:37.417Z,100000.44
2023-05-09T03:01:04.330Z,100003.91
2023-05-09T03:03:34.059Z,100009.13
2023-05-09T03:06:00.891Z,100010.00
2023-05-09T03:08:27.410Z,100006.56
2023-05-09T03:10:54.414Z,100003.13
2023-05-09T03:13:21.011Z,100019.47
2023-05-09T03:15:47.591Z,100025.53
2023-05-09T03:18:14.120Z,100039.41
2023-05-09T03:20:40.648Z,100052.34
2023-05-09T03:23:07.178Z,100044.50
2023-05-09T03:25:33.733Z,100049.66
2023-05-09T03:28:00.234Z,100036.72
2023-05-09T03:30:27.235Z,100036.69
2023-05-09T03:32:53.776Z,100024.56
2023-05-09T03:35:20.399Z,100011.66
2023-05-09T03:37:47.177Z,100022.84
2023-05-09T03:40:13.784Z,100025.41
2023-05-09T03:42:40.353Z,100028.88
2023-05-09T03:45:07.462Z,100015.81
2023-05-09T03:47:33.988Z,99986.44
2023-05-09T03:50:00.632Z,99962.38
2023-05-09T03:52:27.436Z,99964.97
2023-05-09T03:54:53.961Z,99958.91
2023-05-09T03:57:20.554Z,99940.84
2023-05-09T03:59:47.104Z,99928.84
2023-05-09T04:02:13.726Z,99945.28
2023-05-09T04:04:40.571Z,99938.28
2023-05-09T04:07:07.132Z,99928.81
2023-05-09T04:09:33.697Z,99942.66
2023-05-09T04:12:00.273Z,99946.13
2023-05-09T04:14:26.973Z,99950.28
2023-05-09T04:16:53.797Z,99949.41
2023-05-09T04:19:20.359Z,99939.97
2023-05-09T04:21:46.881Z,99926.13
2023-05-09T04:24:13.334Z,99917.50
2023-05-09T04:26:39.863Z,99909.66
2023-05-09T04:29:06.491Z,99901.03
2023-05-09T04:31:33.078Z,99876.91
2023-05-09T04:34:00.027Z,99876.09
2023-05-09T04:36:27.797Z,99867.47
2023-05-09T04:38:54.431Z,99864.84
2023-05-09T04:41:21.514Z,99859.69
2023-05-09T04:43:48.092Z,99865.63
2023-05-09T04:46:14.661Z,99856.16
2023-05-09T04:48:41.609Z,99857.88
2023-05-09T04:51:08.175Z,99852.72
2023-05-09T04:53:34.828Z,99853.56
2023-05-09T04:56:01.388Z,99850.97
2023-05-09T04:58:27.908Z,99850.19
2023-05-09T05:00:54.616Z,99869.94
2023-05-09T05:03:21.220Z,99863.97
2023-05-09T05:05:48.049Z,99852.03
2023-05-09T05:08:15.195Z,99886.47
2023-05-09T05:10:41.922Z,99894.22
2023-05-09T05:13:08.503Z,99892.53
2023-05-09T05:15:35.118Z,99903.75
2023-05-09T05:18:02.435Z,99881.38
2023-05-09T05:20:28.998Z,99882.25
2023-05-09T05:22:55.996Z,99884.84
2023-05-09T05:25:22.582Z,99878.84
2023-05-09T05:27:49.138Z,99889.19
2023-05-09T05:30:15.912Z,99893.56
2023-05-09T05:32:43.716Z,99899.59
2023-05-09T05:35:14.220Z,99899.63
2023-05-09T05:37:41.525Z,99915.16
2023-05-09T05:40:08.899Z,99925.50
2023-05-09T05:42:35.933Z,99916.84
2023-05-09T05:45:04.673Z,99890.22
2023-05-09T05:47:35.794Z,99900.56
2023-05-09T05:50:11.728Z,99905.81
2023-05-09T05:52:39.268Z,99926.56
2023-05-09T05:55:06.433Z,99952.38
2023-05-09T05:57:34.638Z,99953.13
2023-05-09T06:00:01.425Z,99941.03
2023-05-09T06:02:28.039Z,99944.41
2023-05-09T06:04:55.932Z,99929.88
2023-05-09T06:07:22.924Z,99909.25
2023-05-09T06:09:49.458Z,99917.06
2023-05-09T06:12:17.101Z,99900.69
2023-05-09T06:14:43.816Z,99903.34
2023-05-09T06:17:10.637Z,99891.38
2023-05-09T06:19:37.743Z,99902.59
2023-05-09T06:22:04.522Z,99924.19
2023-05-09T06:24:35.967Z,99928.47
2023-05-09T06:27:04.011Z,99931.91
2023-05-09T06:29:30.634Z,99944.81
2023-05-09T06:31:57.153Z,99948.09
2023-05-09T06:34:23.818Z,99938.69
2023-05-09T06:36:50.418Z,99930.16
2023-05-09T06:39:16.898Z,99923.22
2023-05-09T06:41:43.528Z,99914.66
2023-05-09T06:44:10.012Z,99924.97
2023-05-09T06:46:37.006Z,99936.00
2023-05-09T06:49:03.606Z,99927.41
2023-05-09T06:51:30.202Z,99925.72
2023-05-09T06:53:56.779Z,99934.38
2023-05-09T06:56:27.074Z,99924.97
2023-05-09T06:58:54.302Z,99931.94
2023-05-09T07:01:20.925Z,99925.09
2023-05-09T07:03:47.730Z,99914.75
2023-05-09T07:06:14.286Z,99926.81
2023-05-09T07:08:40.936Z,99929.22
2023-05-09T07:11:07.858Z,99914.72
2023-05-09T07:13:34.361Z,99903.59
2023-05-09T07:16:00.908Z,99926.88
2023-05-09T07:18:27.505Z,99913.97
2023-05-09T07:20:54.238Z,99930.28
2023-05-09T07:23:20.994Z,99941.50
2023-05-09T07:25:47.507Z,99944.00
2023-05-09T07:28:14.049Z,99943.97
2023-05-09T07:30:40.661Z,99925.88
2023-05-09T07:33:08.310Z,99901.84
2023-05-09T07:35:34.988Z,99911.38
2023-05-09T07:38:01.548Z,99908.91
2023-05-09T07:40:28.053Z,99923.56
2023-05-09T07:42:56.741Z,99927.09
2023-05-09T07:45:24.005Z,99940.03
2023-05-09T07:47:50.870Z,99944.38
2023-05-09T07:50:17.480Z,99949.53
2023-05-09T07:52:44.402Z,99953.75
2023-05-09T07:55:12.436Z,99964.97
2023-05-09T07:57:40.650Z,99964.19
2023-05-09T08:00:08.884Z,99962.47
2023-05-09T08:02:36.229Z,99966.69
2023-05-09T08:05:03.168Z,99963.28
2023-05-09T08:07:29.710Z,99955.50
2023-05-09T08:09:56.608Z,99952.03
2023-05-09T08:12:23.198Z,99959.06
2023-05-09T08:14:49.760Z,99964.31
2023-05-09T08:17:16.922Z,99972.97
2023-05-09T08:19:43.899Z,99984.16
2023-05-09T08:22:17.495Z,99972.91
2023-05-09T08:24:44.047Z,99973.56
2023-05-09T08:27:11.360Z,99956.38
2023-05-09T08:29:37.904Z,99960.00
2023-05-09T08:32:04.675Z,99964.44
2023-05-09T08:34:34.718Z,99984.34
2023-05-09T08:37:02.250Z,99988.66
2023-05-09T08:39:28.764Z,99993.00
2023-05-09T08:42:02.373Z,99999.91
2023-05-09T08:44:31.502Z,99999.84
2023-05-09T08:47:03.585Z,99985.03
2023-05-09T08:49:30.592Z,99980.84
2023-05-09T08:51:57.522Z,99980.88
2023-05-09T08:54:26.240Z,99990.22
2023-05-09T08:56:52.777Z,99989.47
2023-05-09T08:59:19.744Z,99983.47
2023-05-09T09:01:46.793Z,99999.06
2023-05-09T09:04:14.271Z,100001.66
2023-05-09T09:06:41.538Z,100006.00
2023-05-09T09:09:11.475Z,100011.22
2023-05-09T09:11:40.762Z,100012.03
2023-05-09T09:14:20.241Z,100018.09
2023-05-09T09:16:48.950Z,100019.84
2023-05-09T09:19:18.041Z,100021.56
2023-05-09T09:21:49.799Z,100012.91
2023-05-09T09:24:21.490Z,100015.50
2023-05-09T09:26:50.028Z,100019.84
2023-05-09T09:29:18.605Z,100037.09
2023-05-09T09:31:47.242Z,100036.22
2023-05-09T09:34:20.336Z,100044.00
2023-05-09T09:36:48.349Z,100051.78
2023-05-09T09:39:16.155Z,100043.94
2023-05-09T09:41:45.205Z,100041.34
2023-05-09T09:44:20.072Z,100047.38
2023-05-09T09:46:51.958Z,100046.53
2023-05-09T09:49:24.201Z,100045.59
2023-05-09T09:51:55.051Z,100050.78
2023-05-09T09:54:21.792Z,100049.03
2023-05-09T09:56:50.818Z,100050.66
2023-05-09T09:59:23.556Z,100061.91
2023-05-09T10:02:04.208Z,100068.84
2023-05-09T10:04:37.787Z,100057.66
2023-05-09T10:07:06.393Z,100067.81
2023-05-09T10:09:35.038Z,100067.22
2023-05-09T10:12:06.523Z,100066.06
2023-05-09T10:14:35.754Z,100066.19
2023-05-09T10:17:05.072Z,100050.63
2023-05-09T10:19:32.972Z,100039.47
2023-05-09T10:22:04.411Z,100037.53
2023-05-09T10:24:39.823Z,99985.50
2023-05-09T10:27:10.428Z,99911.63
2023-05-09T10:29:45.780Z,99827.06
2023-05-09T10:32:23.483Z,99733.28
2023-05-09T10:34:54.631Z,99678.88
2023-05-09T10:37:22.406Z,99647.25
2023-05-09T10:39:53.520Z,99645.22
2023-05-09T10:42:20.563Z,99632.34
2023-05-09T10:44:48.419Z,99621.31
2023-05-09T10:47:15.583Z,99619.75
2023-05-09T10:49:44.304Z,99621.78
2023-05-09T10:52:10.975Z,99624.63
2023-05-09T10:54:37.508Z,99623.88
2023-05-09T10:57:06.341Z,99617.63
2023-05-09T10:59:37.341Z,99627.19
2023-05-09T11:02:05.574Z,99620.78
2023-05-09T11:04:32.998Z,99625.59
2023-05-09T11:07:00.605Z,99631.63
2023-05-09T11:09:37.154Z,99631.63
2023-05-09T11:12:12.609Z,99631.75
2023-05-09T11:14:43.107Z,99641.16
2023-05-09T11:17:11.390Z,99628.13
2023-05-09T11:19:47.024Z,99631.72
2023-05-09T11:22:21.306Z,99637.03
2023-05-09T11:24:47.771Z,99639.34
2023-05-09T11:27:25.152Z,99629.00
2023-05-09T11:29:55.201Z,99636.63
2023-05-09T11:32:27.311Z,99630.53
2023-05-09T11:35:12.544Z,99640.38
2023-05-09T11:37:46.248Z,99633.59
2023-05-09T11:40:14.699Z,99637.03
2023-05-09T11:42:46.848Z,99638.63
2023-05-09T11:45:16.844Z,99640.56
2023-05-09T11:47:43.635Z,99635.47
2023-05-09T11:50:12.190Z,99641.34
2023-05-09T11:52:39.496Z,99639.84
2023-05-09T11:55:12.281Z,99632.13
2023-05-09T11:57:46.248Z,99629.56
2023-05-09T12:00:15.241Z,99633.00
2023-05-09T12:02:44.514Z,99635.53
2023-05-09T12:05:16.403Z,99619.22
2023-05-09T12:07:43.680Z,99628.66
2023-05-09T12:10:21.367Z,99624.41
2023-05-09T12:12:50.174Z,99617.34
2023-05-09T12:15:17.640Z,99609.72
2023-05-09T12:17:47.091Z,99614.88
2023-05-09T12:20:14.863Z,99620.03
2023-05-09T12:22:43.413Z,99617.44
2023-05-09T12:25:11.842Z,99619.13
2023-05-09T12:27:39.553Z,99624.41
2023-05-09T12:30:10.822Z,99624.50
2023-05-09T12:32:40.305Z,99615.88
2023-05-09T12:35:10.229Z,99604.78
2023-05-09T12:37:36.844Z,99598.72
2023-05-09T12:40:12.210Z,99600.34
2023-05-09T12:42:39.510Z,99595.19
2023-05-09T12:45:09.511Z,99605.63
2023-05-09T12:47:38.906Z,99614.84
2023-05-09T12:50:07.403Z,99614.19
2023-05-09T12:53:01.383Z,99621.69
2023-05-09T12:55:30.190Z,99624.19
2023-05-09T12:58:03.815Z,99619.91
2023-05-09T13:00:42.751Z,99631.00
2023-05-09T13:03:26.416Z,99640.44
2023-05-09T13:06:01.174Z,99651.75
2023-05-09T13:08:28.935Z,99662.84
2023-05-09T13:11:07.979Z,99664.50
2023-05-09T13:13:42.622Z,99663.72
2023-05-09T13:16:10.715Z,99668.88
2023-05-09T13:18:38.106Z,99680.13
2023-05-09T13:21:04.776Z,99670.63
2023-05-09T13:23:31.279Z,99687.91
2023-05-09T13:25:58.138Z,99684.50
2023-05-09T13:28:24.622Z,99685.38
2023-05-09T13:30:51.166Z,99680.84
2023-05-09T13:35:51.198Z,99677.41
2023-05-09T13:38:17.707Z,99668.91
2023-05-09T13:40:44.247Z,99672.47
2023-05-09T13:43:10.788Z,99668.91
2023-05-09T13:45:37.308Z,99667.97
2023-05-09T13:48:04.250Z,99669.00
2023-05-09T13:50:30.982Z,99666.38
2023-05-09T13:52:59.861Z,99667.34
2023-05-09T13:55:29.353Z,99662.28
2023-05-09T13:57:56.007Z,99656.16
2023-05-09T14:00:25.524Z,99653.56
2023-05-09T14:02:52.822Z,99660.44
2023-05-09T14:05:19.408Z,99657.03
2023-05-09T14:07:45.941Z,99643.34
2023-05-09T14:10:13.022Z,99640.78
2023-05-09T14:12:40.459Z,99638.09
2023-05-09T14:15:08.499Z,99646.59
2023-05-09T14:17:35.334Z,99643.09
2023-05-09T14:20:02.263Z,99635.41
2023-05-09T14:22:28.797Z,99638.97
2023-05-09T14:24:57.405Z,99634.69
2023-05-09T14:27:25.005Z,99642.44
2023-05-09T14:29:51.587Z,99642.47
2023-05-09T14:32:18.185Z,99642.50
2023-05-09T14:34:45.670Z,99639.13
2023-05-09T14:37:14.767Z,99636.56
2023-05-09T14:39:42.707Z,99631.38
2023-05-09T14:42:11.609Z,99627.97
2023-05-09T14:44:38.841Z,99621.00
2023-05-09T14:47:06.060Z,99616.69
2023-05-09T14:49:32.971Z,99621.00
2023-05-09T14:52:00.004Z,99624.50
2023-05-09T14:54:26.757Z,99619.34
2023-05-09T14:56:53.481Z,99626.97
2023-05-09T14:59:21.228Z,99633.03
2023-05-09T15:01:47.748Z,99623.66
2023-05-09T15:04:14.366Z,99616.75
2023-05-09T15:06:41.473Z,99620.16
2023-05-09T15:09:08.434Z,99615.88
2023-05-09T15:11:46.791Z,99608.22
2023-05-09T15:14:14.943Z,99603.06
2023-05-09T15:16:44.076Z,99600.50
2023-05-09T15:19:10.780Z,99589.44
2023-05-09T15:21:37.448Z,99576.56
2023-05-09T15:24:06.162Z,99561.94
2023-05-09T15:26:33.055Z,99558.50
2023-05-09T15:28:59.599Z,99540.44
2023-05-09T15:31:26.563Z,99537.03
2023-05-09T15:33:53.397Z,99520.69
2023-05-09T15:36:19.921Z,99503.44
2023-05-09T15:38:49.450Z,99499.97
2023-05-09T15:41:16.817Z,99483.63
2023-05-09T15:43:46.251Z,99487.94
2023-05-09T15:46:12.803Z,99491.38
2023-05-09T15:48:39.340Z,99489.63
2023-05-09T15:51:06.409Z,99492.25
2023-05-09T15:53:33.092Z,99490.53
2023-05-09T15:55:59.680Z,99496.56
2023-05-09T15:58:26.214Z,99491.34
2023-05-09T16:00:53.721Z,99492.22
2023-05-09T16:03:20.321Z,99493.94
2023-05-09T16:05:47.044Z,99475.88
2023-05-09T16:08:13.845Z,99476.75
2023-05-09T16:10:40.885Z,99463.78
2023-05-09T16:13:07.861Z,99462.94
2023-05-09T16:15:35.273Z,99444.16
2023-05-09T16:18:01.800Z,99482.06
2023-05-09T16:20:28.367Z,99597.72
2023-05-09T16:22:54.925Z,99692.72
2023-05-09T16:25:21.473Z,99811.06
2023-05-09T16:27:47.998Z,99802.88
2023-05-09T16:30:15.371Z,99746.75
2023-05-09T16:32:42.584Z,99669.00
2023-05-09T16:35:09.468Z,99632.81
2023-05-09T16:37:36.416Z,99624.25
2023-05-09T16:40:04.407Z,99602.63
2023-05-09T16:42:30.954Z,99602.66
2023-05-09T16:44:57.594Z,99574.16
2023-05-09T16:47:24.192Z,99561.19
2023-05-09T16:49:50.754Z,99569.84
2023-05-09T16:52:17.490Z,99569.84
2023-05-09T16:54:44.036Z,99560.34
2023-05-09T16:57:10.713Z,99544.78
2023-05-09T16:59:37.838Z,99535.31
2023-05-09T17:02:04.542Z,99532.69
2023-05-09T17:04:31.249Z,99537.53
2023-05-09T17:06:57.846Z,99561.94
2023-05-09T17:09:24.479Z,99549.94
2023-05-09T17:11:50.962Z,99522.31
2023-05-09T17:14:17.531Z,99512.00
2023-05-09T17:16:44.287Z,99495.28
2023-05-09T17:19:11.050Z,99521.25
2023-05-09T17:21:41.473Z,99659.47
2023-05-09T17:24:10.958Z,99772.47
2023-05-09T17:26:39.601Z,99820.00
2023-05-09T17:29:06.169Z,99845.09
2023-05-09T17:31:32.844Z,99859.84
2023-05-09T17:34:01.248Z,99824.53
2023-05-09T17:36:27.788Z,99840.81
2023-05-09T17:38:54.417Z,99873.41
2023-05-09T17:41:20.920Z,99905.59
2023-05-09T17:43:47.524Z,99926.09
2023-05-09T17:46:15.055Z,99914.41
2023-05-09T17:48:42.669Z,99887.59
2023-05-09T17:51:09.206Z,99885.88
2023-05-09T17:53:35.772Z,99881.59
2023-05-09T17:56:02.372Z,99846.13
2023-05-09T17:58:29.948Z,99833.19
2023-05-09T18:00:58.693Z,99834.00
2023-05-09T18:03:27.569Z,99867.72
2023-05-09T18:05:54.437Z,99865.13
2023-05-09T18:08:21.005Z,99867.72
2023-05-09T18:10:47.559Z,99888.50
2023-05-09T18:13:14.243Z,99885.84
2023-05-09T18:15:41.234Z,99895.38
2023-05-09T18:18:08.243Z,99904.06
2023-05-09T18:20:35.082Z,99913.53
2023-05-09T18:23:01.752Z,99908.38
2023-05-09T18:25:28.495Z,99904.03
2023-05-09T18:27:57.971Z,99905.78
2023-05-09T18:30:24.533Z,99877.25
2023-05-09T18:32:51.034Z,99872.06
2023-05-09T18:35:17.588Z,99856.47
2023-05-09T18:37:44.918Z,99840.06
2023-05-09T18:40:15.540Z,99846.97
2023-05-09T18:42:42.636Z,99847.78
2023-05-09T18:45:10.166Z,99827.91
2023-05-09T18:47:37.593Z,99818.38
2023-05-09T18:50:05.782Z,99813.22
2023-05-09T18:52:33.026Z,99804.56
2023-05-09T18:55:00.039Z,99796.75
2023-05-09T18:57:26.872Z,99786.41
2023-05-09T18:59:54.512Z,99770.00
2023-05-09T19:02:22.488Z,99756.16
2023-05-09T19:04:51.602Z,99736.31
2023-05-09T19:07:19.913Z,99761.31
2023-05-09T19:09:48.263Z,99763.94
2023-05-09T19:12:17.813Z,99783.72
2023-05-09T19:14:44.590Z,99792.34
2023-05-09T19:17:12.465Z,99789.75
2023-05-09T19:19:40.845Z,99787.13
2023-05-09T19:22:09.288Z,99787.13
2023-05-09T19:24:37.371Z,99787.94
2023-05-09T19:27:09.222Z,99790.53
2023-05-09T19:29:37.682Z,99804.34
2023-05-09T19:32:07.021Z,99802.56
2023-05-09T19:34:33.681Z,99796.44
2023-05-09T19:37:00.238Z,99799.09
2023-05-09T19:39:28.834Z,99806.75
2023-05-09T19:41:55.624Z,99807.59
2023-05-09T19:44:22.154Z,99827.38
2023-05-09T19:46:50.708Z,99857.50
2023-05-09T19:49:18.108Z,99891.13
2023-05-09T19:51:45.039Z,99906.50
2023-05-09T19:54:13.663Z,99913.38
2023-05-09T19:56:40.566Z,99919.31
2023-05-09T19:59:09.037Z,99922.78
2023-05-09T20:01:39.351Z,99931.44
2023-05-09T20:04:07.538Z,99934.81
2023-05-09T20:06:35.644Z,99950.28
2023-05-09T20:09:04.464Z,99958.03
2023-05-09T20:11:33.104Z,99966.56
2023-05-09T20:14:01.531Z,99947.59
2023-05-09T20:16:30.188Z,99971.72
2023-05-09T20:18:59.951Z,99973.41
2023-05-09T20:21:29.558Z,99966.41
2023-05-09T20:23:58.246Z,99969.94
2023-05-09T20:26:26.685Z,99974.16
2023-05-09T20:28:59.305Z,99964.69
2023-05-09T20:31:27.669Z,99952.59
2023-05-09T20:33:55.878Z,99964.66
2023-05-09T20:36:24.442Z,99979.19
2023-05-09T20:38:53.099Z,99986.13
2023-05-09T20:41:22.209Z,99981.81
2023-05-09T20:43:50.193Z,99998.06
2023-05-09T20:46:19.160Z,100000.81
2023-05-09T20:48:46.848Z,100038.50
2023-05-09T20:51:15.162Z,100067.75
2023-05-09T20:53:43.543Z,100085.88
2023-05-09T20:56:10.342Z,100104.50
2023-05-09T20:58:36.901Z,100113.25
2023-05-09T21:01:03.648Z,100116.59
2023-05-09T21:03:30.531Z,100115.69
2023-05-09T21:05:58.311Z,100126.81
2023-05-09T21:08:25.876Z,100117.41
2023-05-09T21:10:53.329Z,100122.47
2023-05-09T21:13:20.012Z,100127.50
2023-05-09T21:15:50.128Z,100114.69
2023-05-09T21:18:17.006Z,100137.13
2023-05-09T21:20:43.589Z,100138.69
2023-05-09T21:23:10.059Z,100115.41
2023-05-09T21:25:36.604Z,100115.31
2023-05-09T21:28:03.120Z,100120.50
2023-05-09T21:30:29.954Z,100110.28
2023-05-09T21:32:56.435Z,100098.13
2023-05-09T21:35:23.379Z,100089.38
2023-05-09T21:37:53.147Z,100064.44
2023-05-09T21:40:19.619Z,100072.16
2023-05-09T21:42:47.184Z,100084.09
2023-05-09T21:45:13.988Z,100080.56
2023-05-09T21:47:40.771Z,100082.16
2023-05-09T21:50:07.803Z,100081.88
2023-05-09T21:52:34.306Z,100063.81
2023-05-09T21:55:00.776Z,100061.97
2023-05-09T21:57:27.278Z,100066.38
2023-05-09T21:59:56.142Z,100063.63
2023-05-09T22:02:22.825Z,100054.13
2023-05-09T22:04:49.431Z,100048.06
2023-05-09T22:07:15.912Z,100042.88
2023-05-09T22:09:42.453Z,100050.53
2023-05-09T22:12:09.157Z,100057.41
2023-05-09T22:14:45.173Z,100064.31
2023-05-09T22:17:15.518Z,100050.50
2023-05-09T22:19:42.069Z,100058.22
2023-05-09T22:22:08.575Z,100064.06
2023-05-09T22:24:35.381Z,100053.78
2023-05-09T22:27:02.056Z,100064.13
2023-05-09T22:29:28.611Z,100044.88
2023-05-09T22:31:55.523Z,100047.63
2023-05-09T22:34:23.150Z,100049.03
2023-05-09T22:36:49.632Z,100053.38
2023-05-09T22:39:16.508Z,100034.31
2023-05-09T22:41:43.066Z,100032.59
2023-05-09T22:44:09.609Z,100021.44
2023-05-09T22:46:36.127Z,100032.59
2023-05-09T22:49:02.833Z,100029.75
2023-05-09T22:51:29.454Z,100020.25
2023-05-09T22:53:56.031Z,100018.56
2023-05-09T22:56:22.540Z,100004.19
2023-05-09T22:58:49.755Z,100016.97
2023-05-09T23:01:16.330Z,100011.94
2023-05-09T23:03:43.009Z,100027.16
2023-05-09T23:06:09.538Z,100015.22
2023-05-09T23:08:36.080Z,100022.94
2023-05-09T23:11:02.638Z,100023.94
2023-05-09T23:13:29.357Z,100020.31
2023-05-09T23:15:55.875Z,100018.72
2023-05-09T23:18:24.252Z,100024.94
2023-05-09T23:20:50.905Z,100035.06
2023-05-09T23:23:17.646Z,100022.81
2023-05-09T23:25:44.497Z,100025.41
2023-05-09T23:28:11.129Z,100025.34
2023-05-09T23:30:37.699Z,100023.34
2023-05-09T23:33:04.374Z,100024.25
2023-05-09T23:35:30.906Z,100020.75
2023-05-09T23:37:57.556Z,100017.19
2023-05-09T23:40:24.571Z,99993.88
2023-05-09T23:42:51.390Z,99992.44
2023-05-09T23:45:18.012Z,99987.94
2023-05-09T23:47:44.578Z,99985.22
2023-05-09T23:50:12.026Z,99981.03
2023-05-09T23:52:38.504Z,99965.56
2023-05-09T23:55:05.564Z,99967.06
2023-05-09T23:57:32.083Z,99958.59
2023-05-09T23:59:58.612Z,99953.38
